Naples, Maine
Current Conditions -  °F | °C
As of 6:54 PM on Monday 24 Nov 2014 (Local Time) from KIZG Reporting Station
Overcast Overcast  
Wind Chill: 59°   Ceiling: 3600
Heat Index: 59°   Visibility: 10mi
Dew Point: 55°   Wind: 3mph
Humidity: 87%   Direction: NA
Pressure: 29.52"   Gusts: NA
Location:  43.97°N, 70.61°W
Report Text: KIZG 242354Z AUTO VRB03KT 10SM FEW023 BKN036 OVC042 15/13 A2952 RMK AO2 SLP998 60002 T01500128 10150 20067 53001
Loading
Personal Weather Stations






























Interactive Weather Map New forecast layout! Learn more

10-Day Weather Forecast

Advertisements
Track Severe Weather on mobile